sensor_id;sensor_type;location;lat;lon;timestamp;pressure;altitude;pressure_sealevel;temperature;humidity
19751;BME280;4663;49.120;9.730;2023-02-15T00:00:25;99489.69;;;-4.03;89.56
19751;BME280;4663;49.120;9.730;2023-02-15T00:02:50;99480.94;;;-3.81;88.66
19751;BME280;4663;49.120;9.730;2023-02-15T00:05:16;99483.59;;;-4.05;88.65
19751;BME280;4663;49.120;9.730;2023-02-15T00:07:41;99481.81;;;-4.05;89.16
19751;BME280;4663;49.120;9.730;2023-02-15T00:10:07;99474.06;;;-3.85;88.57
19751;BME280;4663;49.120;9.730;2023-02-15T00:12:33;99466.22;;;-4.36;88.90
19751;BME280;4663;49.120;9.730;2023-02-15T00:14:58;99475.50;;;-4.24;89.32
19751;BME280;4663;49.120;9.730;2023-02-15T00:17:27;99474.09;;;-4.35;89.61
19751;BME280;4663;49.120;9.730;2023-02-15T00:19:52;99476.69;;;-4.33;90.06
19751;BME280;4663;49.120;9.730;2023-02-15T00:22:18;99466.19;;;-4.11;88.49
19751;BME280;4663;49.120;9.730;2023-02-15T00:24:43;99457.91;;;-4.00;88.39
19751;BME280;4663;49.120;9.730;2023-02-15T00:27:08;99451.13;;;-3.83;87.49
19751;BME280;4663;49.120;9.730;2023-02-15T00:29:34;99457.41;;;-4.10;88.04
19751;BME280;4663;49.120;9.730;2023-02-15T00:31:59;99451.28;;;-3.88;87.17
19751;BME280;4663;49.120;9.730;2023-02-15T00:34:26;99457.81;;;-4.22;87.90
19751;BME280;4663;49.120;9.730;2023-02-15T00:36:53;99453.13;;;-3.90;88.08
19751;BME280;4663;49.120;9.730;2023-02-15T00:39:18;99447.63;;;-4.32;88.90
19751;BME280;4663;49.120;9.730;2023-02-15T00:41:45;99455.63;;;-4.35;89.73
19751;BME280;4663;49.120;9.730;2023-02-15T00:44:11;99453.78;;;-4.57;90.02
19751;BME280;4663;49.120;9.730;2023-02-15T00:46:37;99441.41;;;-4.07;89.06
19751;BME280;4663;49.120;9.730;2023-02-15T00:49:03;99446.22;;;-4.42;88.76
19751;BME280;4663;49.120;9.730;2023-02-15T00:51:28;99450.00;;;-4.49;90.24
19751;BME280;4663;49.120;9.730;2023-02-15T00:53:54;99448.53;;;-4.33;89.14
19751;BME280;4663;49.120;9.730;2023-02-15T00:56:20;99449.47;;;-4.34;89.24
19751;BME280;4663;49.120;9.730;2023-02-15T00:58:46;99452.88;;;-4.32;89.43
19751;BME280;4663;49.120;9.730;2023-02-15T01:01:14;99449.09;;;-4.48;89.34
19751;BME280;4663;49.120;9.730;2023-02-15T01:03:39;99450.19;;;-4.30;89.27
19751;BME280;4663;49.120;9.730;2023-02-15T01:06:07;99447.63;;;-4.32;89.12
19751;BME280;4663;49.120;9.730;2023-02-15T01:08:33;99446.09;;;-4.39;89.02
19751;BME280;4663;49.120;9.730;2023-02-15T01:11:06;99450.13;;;-4.52;90.28
19751;BME280;4663;49.120;9.730;2023-02-15T01:13:32;99447.47;;;-4.27;89.44
19751;BME280;4663;49.120;9.730;2023-02-15T01:15:58;99440.22;;;-3.98;88.43
19751;BME280;4663;49.120;9.730;2023-02-15T01:18:23;99444.88;;;-4.28;89.65
19751;BME280;4663;49.120;9.730;2023-02-15T01:20:49;99445.66;;;-4.03;88.64
19751;BME280;4663;49.120;9.730;2023-02-15T01:23:14;99439.13;;;-3.92;87.74
19751;BME280;4663;49.120;9.730;2023-02-15T01:25:40;99435.28;;;-3.83;87.29
19751;BME280;4663;49.120;9.730;2023-02-15T01:28:05;99437.16;;;-3.87;87.22
19751;BME280;4663;49.120;9.730;2023-02-15T01:30:31;99435.47;;;-4.12;87.54
19751;BME280;4663;49.120;9.730;2023-02-15T01:32:57;99428.13;;;-4.04;87.48
19751;BME280;4663;49.120;9.730;2023-02-15T01:35:23;99431.00;;;-4.10;88.17
19751;BME280;4663;49.120;9.730;2023-02-15T01:37:48;99435.47;;;-4.12;88.09
19751;BME280;4663;49.120;9.730;2023-02-15T01:40:15;99433.34;;;-4.02;88.18
19751;BME280;4663;49.120;9.730;2023-02-15T01:42:42;99419.34;;;-4.04;87.69
19751;BME280;4663;49.120;9.730;2023-02-15T01:48:19;99408.88;;;-3.83;86.76
19751;BME280;4663;49.120;9.730;2023-02-15T01:50:50;99406.09;;;-4.03;86.76
19751;BME280;4663;49.120;9.730;2023-02-15T01:53:20;99414.53;;;-4.17;87.60
19751;BME280;4663;49.120;9.730;2023-02-15T01:55:59;99410.13;;;-4.16;87.82
19751;BME280;4663;49.120;9.730;2023-02-15T01:58:27;99421.69;;;-4.20;88.23
19751;BME280;4663;49.120;9.730;2023-02-15T02:00:54;99416.38;;;-4.19;88.25
19751;BME280;4663;49.120;9.730;2023-02-15T02:03:30;99421.44;;;-4.38;88.57
19751;BME280;4663;49.120;9.730;2023-02-15T02:06:01;99423.50;;;-4.46;88.81
19751;BME280;4663;49.120;9.730;2023-02-15T02:08:27;99422.63;;;-4.45;88.60
19751;BME280;4663;49.120;9.730;2023-02-15T02:10:53;99419.44;;;-4.55;89.08
19751;BME280;4663;49.120;9.730;2023-02-15T02:13:18;99421.44;;;-4.38;89.01
19751;BME280;4663;49.120;9.730;2023-02-15T02:15:52;99415.47;;;-4.67;89.41
19751;BME280;4663;49.120;9.730;2023-02-15T02:18:56;99418.22;;;-4.46;89.22
19751;BME280;4663;49.120;9.730;2023-02-15T02:22:04;99413.19;;;-4.52;89.36
19751;BME280;4663;49.120;9.730;2023-02-15T02:27:32;99402.31;;;-4.43;89.12
19751;BME280;4663;49.120;9.730;2023-02-15T02:41:38;99412.81;;;-4.67;89.30
19751;BME280;4663;49.120;9.730;2023-02-15T02:46:39;99410.88;;;-4.62;90.49
19751;BME280;4663;49.120;9.730;2023-02-15T02:49:09;99392.00;;;-4.49;89.84
19751;BME280;4663;49.120;9.730;2023-02-15T02:51:34;99389.19;;;-4.70;89.89
19751;BME280;4663;49.120;9.730;2023-02-15T02:54:04;99395.34;;;-4.70;90.11
19751;BME280;4663;49.120;9.730;2023-02-15T02:56:44;99399.75;;;-4.70;90.11
19751;BME280;4663;49.120;9.730;2023-02-15T02:59:19;99406.53;;;-4.88;90.68
19751;BME280;4663;49.120;9.730;2023-02-15T03:02:13;99400.06;;;-4.79;91.07
19751;BME280;4663;49.120;9.730;2023-02-15T03:04:46;99397.78;;;-4.89;90.93
19751;BME280;4663;49.120;9.730;2023-02-15T03:07:16;99394.06;;;-4.83;90.49
19751;BME280;4663;49.120;9.730;2023-02-15T03:09:49;99396.72;;;-5.10;91.50
19751;BME280;4663;49.120;9.730;2023-02-15T03:12:19;99395.53;;;-5.01;91.11
19751;BME280;4663;49.120;9.730;2023-02-15T03:14:49;99388.88;;;-4.61;90.23
19751;BME280;4663;49.120;9.730;2023-02-15T03:17:19;99384.91;;;-4.73;89.91
19751;BME280;4663;49.120;9.730;2023-02-15T03:19:46;99382.16;;;-4.70;89.60
19751;BME280;4663;49.120;9.730;2023-02-15T03:22:16;99377.78;;;-4.45;88.80
19751;BME280;4663;49.120;9.730;2023-02-15T03:24:53;99377.31;;;-4.57;88.56
19751;BME280;4663;49.120;9.730;2023-02-15T03:27:24;99382.81;;;-4.88;90.18
19751;BME280;4663;49.120;9.730;2023-02-15T03:29:55;99377.88;;;-4.72;90.36
19751;BME280;4663;49.120;9.730;2023-02-15T03:32:23;99385.88;;;-5.01;90.81
19751;BME280;4663;49.120;9.730;2023-02-15T03:34:49;99388.44;;;-4.99;91.78
19751;BME280;4663;49.120;9.730;2023-02-15T03:37:40;99376.88;;;-4.95;91.27
19751;BME280;4663;49.120;9.730;2023-02-15T03:40:19;99376.19;;;-5.00;91.55
19751;BME280;4663;49.120;9.730;2023-02-15T03:46:01;99371.13;;;-4.81;90.14
19751;BME280;4663;49.120;9.730;2023-02-15T03:48:39;99363.94;;;-4.52;89.46
19751;BME280;4663;49.120;9.730;2023-02-15T03:51:14;99363.88;;;-4.50;89.03
19751;BME280;4663;49.120;9.730;2023-02-15T03:54:20;99365.00;;;-4.82;88.85
19751;BME280;4663;49.120;9.730;2023-02-15T03:57:18;99365.72;;;-4.76;89.32
19751;BME280;4663;49.120;9.730;2023-02-15T04:00:25;99368.25;;;-4.73;89.27
19751;BME280;4663;49.120;9.730;2023-02-15T04:03:21;99362.78;;;-4.94;89.76
19751;BME280;4663;49.120;9.730;2023-02-15T04:05:48;99368.34;;;-4.76;90.05
19751;BME280;4663;49.120;9.730;2023-02-15T04:08:13;99363.16;;;-4.54;89.15
19751;BME280;4663;49.120;9.730;2023-02-15T04:10:38;99355.88;;;-4.47;88.10
19751;BME280;4663;49.120;9.730;2023-02-15T04:13:30;99363.41;;;-4.38;87.58
19751;BME280;4663;49.120;9.730;2023-02-15T04:15:56;99358.78;;;-4.79;87.34
19751;BME280;4663;49.120;9.730;2023-02-15T04:18:29;99362.97;;;-4.73;87.84
19751;BME280;4663;49.120;9.730;2023-02-15T04:21:13;99364.19;;;-4.58;87.95
19751;BME280;4663;49.120;9.730;2023-02-15T04:23:57;99364.66;;;-4.47;87.30
19751;BME280;4663;49.120;9.730;2023-02-15T04:26:41;99362.16;;;-4.51;87.11
19751;BME280;4663;49.120;9.730;2023-02-15T04:29:06;99364.69;;;-4.48;86.97
19751;BME280;4663;49.120;9.730;2023-02-15T04:31:31;99361.91;;;-4.44;86.64
19751;BME280;4663;49.120;9.730;2023-02-15T04:33:57;99361.44;;;-4.55;86.77
19751;BME280;4663;49.120;9.730;2023-02-15T04:36:22;99358.84;;;-4.57;86.77
19751;BME280;4663;49.120;9.730;2023-02-15T04:38:47;99367.09;;;-4.42;86.44
19751;BME280;4663;49.120;9.730;2023-02-15T04:41:13;99360.69;;;-4.35;86.55
19751;BME280;4663;49.120;9.730;2023-02-15T04:43:38;99355.41;;;-4.59;86.38
19751;BME280;4663;49.120;9.730;2023-02-15T04:46:03;99364.09;;;-4.81;86.68
19751;BME280;4663;49.120;9.730;2023-02-15T04:48:29;99350.56;;;-4.71;87.07
19751;BME280;4663;49.120;9.730;2023-02-15T04:50:54;99339.53;;;-4.57;86.45
19751;BME280;4663;49.120;9.730;2023-02-15T04:53:20;99351.09;;;-4.61;86.15
19751;BME280;4663;49.120;9.730;2023-02-15T04:55:45;99338.91;;;-4.64;86.16
19751;BME280;4663;49.120;9.730;2023-02-15T04:58:10;99353.22;;;-4.97;87.05
19751;BME280;4663;49.120;9.730;2023-02-15T05:00:36;99350.91;;;-5.31;87.94
19751;BME280;4663;49.120;9.730;2023-02-15T05:03:01;99343.16;;;-5.11;88.08
19751;BME280;4663;49.120;9.730;2023-02-15T05:05:27;99348.72;;;-5.18;88.25
19751;BME280;4663;49.120;9.730;2023-02-15T05:07:52;99339.69;;;-5.11;87.99
19751;BME280;4663;49.120;9.730;2023-02-15T05:10:18;99341.72;;;-5.20;87.98
19751;BME280;4663;49.120;9.730;2023-02-15T05:12:43;99340.09;;;-4.98;88.14
19751;BME280;4663;49.120;9.730;2023-02-15T05:15:08;99346.84;;;-4.89;87.61
19751;BME280;4663;49.120;9.730;2023-02-15T05:17:34;99343.84;;;-4.80;87.27
19751;BME280;4663;49.120;9.730;2023-02-15T05:19:59;99348.97;;;-5.01;87.36
19751;BME280;4663;49.120;9.730;2023-02-15T05:22:25;99344.69;;;-5.03;87.29
19751;BME280;4663;49.120;9.730;2023-02-15T05:24:50;99344.78;;;-5.07;87.72
19751;BME280;4663;49.120;9.730;2023-02-15T05:27:34;99347.06;;;-5.21;88.20
19751;BME280;4663;49.120;9.730;2023-02-15T05:30:18;99347.06;;;-5.21;88.36
19751;BME280;4663;49.120;9.730;2023-02-15T05:32:43;99337.91;;;-5.11;87.73
19751;BME280;4663;49.120;9.730;2023-02-15T05:35:13;99342.69;;;-5.22;87.69
19751;BME280;4663;49.120;9.730;2023-02-15T05:37:39;99341.50;;;-5.13;87.73
19751;BME280;4663;49.120;9.730;2023-02-15T05:40:05;99331.16;;;-5.45;87.64
19751;BME280;4663;49.120;9.730;2023-02-15T05:42:30;99343.16;;;-5.36;87.88
19751;BME280;4663;49.120;9.730;2023-02-15T05:44:56;99343.50;;;-5.20;87.64
19751;BME280;4663;49.120;9.730;2023-02-15T05:47:21;99343.31;;;-5.41;87.39
19751;BME280;4663;49.120;9.730;2023-02-15T05:49:46;99345.03;;;-5.40;87.83
19751;BME280;4663;49.120;9.730;2023-02-15T05:52:12;99349.19;;;-5.33;87.11
19751;BME280;4663;49.120;9.730;2023-02-15T05:54:37;99340.56;;;-5.38;87.49
19751;BME280;4663;49.120;9.730;2023-02-15T05:57:02;99339.78;;;-5.40;87.47
19751;BME280;4663;49.120;9.730;2023-02-15T05:59:28;99347.88;;;-5.46;87.43
19751;BME280;4663;49.120;9.730;2023-02-15T06:01:53;99345.69;;;-5.33;87.40
19751;BME280;4663;49.120;9.730;2023-02-15T06:04:18;99359.81;;;-5.36;87.16
19751;BME280;4663;49.120;9.730;2023-02-15T06:06:44;99352.63;;;-5.30;86.93
19751;BME280;4663;49.120;9.730;2023-02-15T06:09:11;99356.13;;;-5.57;87.05
19751;BME280;4663;49.120;9.730;2023-02-15T06:11:37;99351.50;;;-5.77;87.65
19751;BME280;4663;49.120;9.730;2023-02-15T06:14:02;99354.53;;;-5.63;87.93
19751;BME280;4663;49.120;9.730;2023-02-15T06:16:28;99358.78;;;-6.14;89.11
19751;BME280;4663;49.120;9.730;2023-02-15T06:18:53;99361.22;;;-5.79;89.21
19751;BME280;4663;49.120;9.730;2023-02-15T06:21:18;99355.97;;;-5.79;89.20
19751;BME280;4663;49.120;9.730;2023-02-15T06:23:44;99351.22;;;-5.68;88.70
19751;BME280;4663;49.120;9.730;2023-02-15T06:26:09;99350.72;;;-5.52;88.20
19751;BME280;4663;49.120;9.730;2023-02-15T06:28:36;99358.50;;;-5.49;87.70
19751;BME280;4663;49.120;9.730;2023-02-15T06:31:02;99351.91;;;-5.63;87.86
19751;BME280;4663;49.120;9.730;2023-02-15T06:33:28;99364.66;;;-5.77;87.87
19751;BME280;4663;49.120;9.730;2023-02-15T06:35:55;99367.22;;;-5.47;87.61
19751;BME280;4663;49.120;9.730;2023-02-15T06:38:21;99365.59;;;-5.51;87.53
19751;BME280;4663;49.120;9.730;2023-02-15T06:40:46;99366.19;;;-5.43;87.09
19751;BME280;4663;49.120;9.730;2023-02-15T06:43:11;99363.09;;;-5.29;86.64
19751;BME280;4663;49.120;9.730;2023-02-15T06:45:37;99363.06;;;-5.27;86.24
19751;BME280;4663;49.120;9.730;2023-02-15T06:48:02;99367.69;;;-5.34;86.34
19751;BME280;4663;49.120;9.730;2023-02-15T06:50:27;99361.75;;;-5.41;86.82
19751;BME280;4663;49.120;9.730;2023-02-15T06:52:59;99364.03;;;-5.57;86.83
19751;BME280;4663;49.120;9.730;2023-02-15T06:55:24;99367.88;;;-5.40;87.02
19751;BME280;4663;49.120;9.730;2023-02-15T06:57:50;99368.88;;;-5.44;87.23
19751;BME280;4663;49.120;9.730;2023-02-15T07:00:16;99375.16;;;-5.49;86.83
19751;BME280;4663;49.120;9.730;2023-02-15T07:02:43;99372.56;;;-5.50;87.25
19751;BME280;4663;49.120;9.730;2023-02-15T07:05:08;99368.09;;;-5.75;87.67
19751;BME280;4663;49.120;9.730;2023-02-15T07:07:34;99363.06;;;-5.27;87.57
19751;BME280;4663;49.120;9.730;2023-02-15T07:09:59;99367.56;;;-5.05;86.74
19751;BME280;4663;49.120;9.730;2023-02-15T07:12:25;99377.03;;;-5.00;86.75
19751;BME280;4663;49.120;9.730;2023-02-15T07:15:15;99374.00;;;-5.13;86.13
19751;BME280;4663;49.120;9.730;2023-02-15T07:17:41;99371.59;;;-5.21;86.17
19751;BME280;4663;49.120;9.730;2023-02-15T07:20:13;99371.88;;;-5.28;85.96
19751;BME280;4663;49.120;9.730;2023-02-15T07:22:38;99377.91;;;-4.99;86.15
19751;BME280;4663;49.120;9.730;2023-02-15T07:25:04;99381.41;;;-4.99;86.27
19751;BME280;4663;49.120;9.730;2023-02-15T07:27:30;99379.44;;;-4.92;85.77
19751;BME280;4663;49.120;9.730;2023-02-15T07:29:56;99378.00;;;-4.77;85.53
19751;BME280;4663;49.120;9.730;2023-02-15T07:32:21;99369.34;;;-4.55;85.09
19751;BME280;4663;49.120;9.730;2023-02-15T07:34:47;99369.06;;;-4.47;85.03
19751;BME280;4663;49.120;9.730;2023-02-15T07:37:12;99360.09;;;-4.43;84.44
19751;BME280;4663;49.120;9.730;2023-02-15T07:39:37;99362.28;;;-4.55;84.03
19751;BME280;4663;49.120;9.730;2023-02-15T07:42:03;99368.63;;;-4.60;84.32
19751;BME280;4663;49.120;9.730;2023-02-15T07:44:28;99369.59;;;-4.63;84.44
19751;BME280;4663;49.120;9.730;2023-02-15T07:46:54;99365.91;;;-4.57;84.52
19751;BME280;4663;49.120;9.730;2023-02-15T07:49:19;99363.00;;;-4.49;84.57
19751;BME280;4663;49.120;9.730;2023-02-15T07:51:44;99370.09;;;-4.51;84.36
19751;BME280;4663;49.120;9.730;2023-02-15T07:54:10;99368.28;;;-4.75;84.98
19751;BME280;4663;49.120;9.730;2023-02-15T07:56:36;99364.25;;;-4.36;84.93
19751;BME280;4663;49.120;9.730;2023-02-15T07:59:01;99357.31;;;-4.38;84.48
19751;BME280;4663;49.120;9.730;2023-02-15T08:01:33;99359.31;;;-4.21;84.14
19751;BME280;4663;49.120;9.730;2023-02-15T08:04:00;99354.88;;;-4.45;83.44
19751;BME280;4663;49.120;9.730;2023-02-15T08:06:28;99357.25;;;-4.61;84.78
19751;BME280;4663;49.120;9.730;2023-02-15T08:08:53;99360.16;;;-4.94;84.40
19751;BME280;4663;49.120;9.730;2023-02-15T08:14:14;99360.44;;;-4.05;84.94
19751;BME280;4663;49.120;9.730;2023-02-15T08:16:44;99350.00;;;-4.08;83.09
19751;BME280;4663;49.120;9.730;2023-02-15T08:19:12;99351.03;;;-4.12;83.03
19751;BME280;4663;49.120;9.730;2023-02-15T08:21:40;99345.81;;;-3.91;82.94
19751;BME280;4663;49.120;9.730;2023-02-15T08:24:07;99351.38;;;-3.97;82.66
19751;BME280;4663;49.120;9.730;2023-02-15T08:26:33;99355.66;;;-3.50;82.69
19751;BME280;4663;49.120;9.730;2023-02-15T08:28:59;99356.13;;;-3.40;81.83
19751;BME280;4663;49.120;9.730;2023-02-15T08:31:25;99354.66;;;-3.70;81.43
19751;BME280;4663;49.120;9.730;2023-02-15T08:33:52;99355.16;;;-3.60;80.74
19751;BME280;4663;49.120;9.730;2023-02-15T08:36:21;99362.09;;;-3.14;81.55
19751;BME280;4663;49.120;9.730;2023-02-15T08:38:47;99353.47;;;-3.40;80.44
19751;BME280;4663;49.120;9.730;2023-02-15T08:43:40;99362.63;;;-3.06;81.82
19751;BME280;4663;49.120;9.730;2023-02-15T08:46:06;99356.63;;;-2.49;80.36
19751;BME280;4663;49.120;9.730;2023-02-15T08:48:32;99353.34;;;-1.96;79.30
19751;BME280;4663;49.120;9.730;2023-02-15T08:50:58;99354.47;;;-1.82;79.37
19751;BME280;4663;49.120;9.730;2023-02-15T08:53:23;99359.09;;;-1.68;78.95
19751;BME280;4663;49.120;9.730;2023-02-15T08:55:58;99348.75;;;-1.73;76.74
19751;BME280;4663;49.120;9.730;2023-02-15T08:58:26;99340.22;;;-1.80;74.91
19751;BME280;4663;49.120;9.730;2023-02-15T09:00:53;99341.03;;;-2.16;76.14
19751;BME280;4663;49.120;9.730;2023-02-15T09:03:18;99341.97;;;-1.98;76.40
19751;BME280;4663;49.120;9.730;2023-02-15T09:05:43;99354.22;;;-1.59;77.09
19751;BME280;4663;49.120;9.730;2023-02-15T09:08:09;99352.06;;;-1.87;76.73
19751;BME280;4663;49.120;9.730;2023-02-15T09:10:34;99338.28;;;-1.22;75.14
19751;BME280;4663;49.120;9.730;2023-02-15T09:12:59;99327.56;;;-1.38;73.50
19751;BME280;4663;49.120;9.730;2023-02-15T09:15:25;99336.47;;;-1.39;74.38
19751;BME280;4663;49.120;9.730;2023-02-15T09:17:50;99333.19;;;-1.09;74.53
19751;BME280;4663;49.120;9.730;2023-02-15T09:20:15;99331.97;;;-1.01;74.67
19751;BME280;4663;49.120;9.730;2023-02-15T09:22:41;99337.97;;;0.34;75.12
19751;BME280;4663;49.120;9.730;2023-02-15T09:25:07;99333.81;;;0.92;72.45
19751;BME280;4663;49.120;9.730;2023-02-15T09:27:32;99311.03;;;1.46;71.57
19751;BME280;4663;49.120;9.730;2023-02-15T09:29:57;99303.03;;;0.88;69.30
19751;BME280;4663;49.120;9.730;2023-02-15T09:32:23;99314.38;;;0.44;70.36
19751;BME280;4663;49.120;9.730;2023-02-15T09:34:48;99315.19;;;1.50;71.22
19751;BME280;4663;49.120;9.730;2023-02-15T09:37:14;99292.97;;;1.07;68.69
19751;BME280;4663;49.120;9.730;2023-02-15T09:39:41;99297.53;;;1.34;68.90
19751;BME280;4663;49.120;9.730;2023-02-15T09:48:54;99308.53;;;2.69;68.90
19751;BME280;4663;49.120;9.730;2023-02-15T10:28:15;99240.41;;;3.54;64.57
19751;BME280;4663;49.120;9.730;2023-02-15T10:33:39;99229.38;;;4.68;63.37
19751;BME280;4663;49.120;9.730;2023-02-15T10:39:16;99220.41;;;4.81;62.42
19751;BME280;4663;49.120;9.730;2023-02-15T10:41:57;99226.69;;;4.57;63.95
19751;BME280;4663;49.120;9.730;2023-02-15T10:44:49;99217.09;;;4.18;63.08
19751;BME280;4663;49.120;9.730;2023-02-15T10:48:37;99260.09;;;4.51;66.33
19751;BME280;4663;49.120;9.730;2023-02-15T10:56:24;99218.22;;;5.66;62.45
19751;BME280;4663;49.120;9.730;2023-02-15T10:59:18;99231.16;;;5.61;64.51
19751;BME280;4663;49.120;9.730;2023-02-15T11:02:31;99213.00;;;5.53;62.49
19751;BME280;4663;49.120;9.730;2023-02-15T11:07:17;99232.34;;;4.99;64.54
19751;BME280;4663;49.120;9.730;2023-02-15T11:09:51;99225.00;;;5.82;63.39
19751;BME280;4663;49.120;9.730;2023-02-15T11:12:23;99197.16;;;5.50;62.10
19751;BME280;4663;49.120;9.730;2023-02-15T11:15:00;99205.47;;;5.58;62.63
19751;BME280;4663;49.120;9.730;2023-02-15T11:17:35;99221.91;;;5.31;63.75
19751;BME280;4663;49.120;9.730;2023-02-15T11:22:33;99199.22;;;5.58;63.14
19751;BME280;4663;49.120;9.730;2023-02-15T11:25:00;99195.53;;;5.82;61.90
19751;BME280;4663;49.120;9.730;2023-02-15T11:27:30;99223.34;;;6.35;63.59
19751;BME280;4663;49.120;9.730;2023-02-15T11:30:05;99208.69;;;7.03;62.98
19751;BME280;4663;49.120;9.730;2023-02-15T11:32:43;99199.72;;;6.28;61.38
19751;BME280;4663;49.120;9.730;2023-02-15T11:37:54;99172.06;;;7.02;60.33
19751;BME280;4663;49.120;9.730;2023-02-15T11:40:31;99194.25;;;6.30;62.04
19751;BME280;4663;49.120;9.730;2023-02-15T11:43:06;99174.56;;;6.62;60.59
19751;BME280;4663;49.120;9.730;2023-02-15T11:45:36;99194.25;;;6.73;61.72
19751;BME280;4663;49.120;9.730;2023-02-15T11:48:09;99168.38;;;6.29;60.26
19751;BME280;4663;49.120;9.730;2023-02-15T11:50:36;99200.88;;;5.82;62.35
19751;BME280;4663;49.120;9.730;2023-02-15T11:53:04;99176.16;;;6.11;61.07
19751;BME280;4663;49.120;9.730;2023-02-15T11:55:30;99178.00;;;6.10;61.81
19751;BME280;4663;49.120;9.730;2023-02-15T12:00:52;99157.84;;;6.80;60.23
19751;BME280;4663;49.120;9.730;2023-02-15T12:03:29;99179.09;;;6.93;62.74
19751;BME280;4663;49.120;9.730;2023-02-15T12:06:03;99171.75;;;6.95;63.09
19751;BME280;4663;49.120;9.730;2023-02-15T12:08:41;99165.75;;;7.13;62.61
19751;BME280;4663;49.120;9.730;2023-02-15T12:11:15;99145.88;;;6.94;61.04
19751;BME280;4663;49.120;9.730;2023-02-15T12:14:01;99165.47;;;6.53;62.54
19751;BME280;4663;49.120;9.730;2023-02-15T12:16:33;99144.53;;;6.78;61.49
19751;BME280;4663;49.120;9.730;2023-02-15T12:19:05;99151.72;;;7.09;61.12
19751;BME280;4663;49.120;9.730;2023-02-15T12:21:33;99160.38;;;7.13;62.20
19751;BME280;4663;49.120;9.730;2023-02-15T12:27:11;99152.84;;;6.65;62.00
19751;BME280;4663;49.120;9.730;2023-02-15T12:29:46;99150.72;;;6.69;62.33
19751;BME280;4663;49.120;9.730;2023-02-15T12:32:26;99162.56;;;6.24;63.37
19751;BME280;4663;49.120;9.730;2023-02-15T12:35:00;99146.34;;;6.25;62.48
19751;BME280;4663;49.120;9.730;2023-02-15T12:37:29;99150.09;;;6.56;61.99
19751;BME280;4663;49.120;9.730;2023-02-15T12:40:11;99133.81;;;6.78;61.20
19751;BME280;4663;49.120;9.730;2023-02-15T12:42:44;99140.47;;;7.15;61.26
19751;BME280;4663;49.120;9.730;2023-02-15T12:45:22;99143.97;;;7.06;61.48
19751;BME280;4663;49.120;9.730;2023-02-15T12:48:14;99144.63;;;6.98;61.85
19751;BME280;4663;49.120;9.730;2023-02-15T12:50:48;99144.97;;;6.31;62.26
19751;BME280;4663;49.120;9.730;2023-02-15T12:56:01;99126.56;;;7.00;61.11
19751;BME280;4663;49.120;9.730;2023-02-15T12:58:33;99140.59;;;6.83;62.56
19751;BME280;4663;49.120;9.730;2023-02-15T13:01:18;99126.41;;;6.61;62.11
19751;BME280;4663;49.120;9.730;2023-02-15T13:03:59;99137.56;;;6.23;63.45
19751;BME280;4663;49.120;9.730;2023-02-15T13:06:27;99123.78;;;6.49;62.82
19751;BME280;4663;49.120;9.730;2023-02-15T13:08:56;99115.47;;;6.52;62.57
19751;BME280;4663;49.120;9.730;2023-02-15T13:11:30;99132.06;;;6.25;63.39
19751;BME280;4663;49.120;9.730;2023-02-15T13:14:13;99121.75;;;5.99;64.22
19751;BME280;4663;49.120;9.730;2023-02-15T13:16:41;99105.00;;;6.49;63.27
19751;BME280;4663;49.120;9.730;2023-02-15T13:22:02;99115.06;;;6.57;64.01
19751;BME280;4663;49.120;9.730;2023-02-15T13:24:35;99099.44;;;6.62;64.17
19751;BME280;4663;49.120;9.730;2023-02-15T13:27:03;99091.13;;;6.65;63.66
19751;BME280;4663;49.120;9.730;2023-02-15T13:29:34;99098.41;;;6.53;63.70
19751;BME280;4663;49.120;9.730;2023-02-15T13:34:48;99091.13;;;6.44;64.60
19751;BME280;4663;49.120;9.730;2023-02-15T13:37:20;99101.56;;;6.16;65.36
19751;BME280;4663;49.120;9.730;2023-02-15T13:40:00;99092.19;;;6.32;66.03
19751;BME280;4663;49.120;9.730;2023-02-15T13:42:31;99079.81;;;5.98;65.43
19751;BME280;4663;49.120;9.730;2023-02-15T13:48:31;99088.72;;;5.98;66.40
19751;BME280;4663;49.120;9.730;2023-02-15T13:56:28;99093.19;;;5.55;68.39
19751;BME280;4663;49.120;9.730;2023-02-15T13:59:04;99087.94;;;5.54;68.75
19751;BME280;4663;49.120;9.730;2023-02-15T14:01:54;99079.38;;;5.93;67.33
19751;BME280;4663;49.120;9.730;2023-02-15T14:10:10;99069.31;;;6.06;66.32
19751;BME280;4663;49.120;9.730;2023-02-15T14:26:02;99068.59;;;6.04;66.56
19751;BME280;4663;49.120;9.730;2023-02-15T14:28:45;99065.78;;;6.06;66.52
19751;BME280;4663;49.120;9.730;2023-02-15T14:31:15;99068.50;;;5.94;66.96
19751;BME280;4663;49.120;9.730;2023-02-15T14:33:49;99063.19;;;5.61;67.24
19751;BME280;4663;49.120;9.730;2023-02-15T14:36:18;99058.97;;;5.80;66.61
19751;BME280;4663;49.120;9.730;2023-02-15T14:41:45;99070.69;;;5.46;68.19
19751;BME280;4663;49.120;9.730;2023-02-15T14:44:43;99059.19;;;5.56;67.18
19751;BME280;4663;49.120;9.730;2023-02-15T14:47:11;99070.72;;;5.35;68.90
19751;BME280;4663;49.120;9.730;2023-02-15T14:49:41;99076.97;;;5.24;69.29
19751;BME280;4663;49.120;9.730;2023-02-15T14:52:07;99078.03;;;5.33;69.52
19751;BME280;4663;49.120;9.730;2023-02-15T14:59:38;99078.97;;;5.43;70.55
19751;BME280;4663;49.120;9.730;2023-02-15T15:04:43;99075.75;;;5.17;71.27
19751;BME280;4663;49.120;9.730;2023-02-15T15:07:47;99070.38;;;5.28;71.08
19751;BME280;4663;49.120;9.730;2023-02-15T15:12:45;99074.19;;;4.80;71.99
19751;BME280;4663;49.120;9.730;2023-02-15T15:49:58;99069.44;;;4.03;75.24
19751;BME280;4663;49.120;9.730;2023-02-15T15:52:25;99056.19;;;4.02;75.33
19751;BME280;4663;49.120;9.730;2023-02-15T15:55:03;99061.53;;;4.02;75.54
19751;BME280;4663;49.120;9.730;2023-02-15T15:57:37;99058.44;;;3.83;76.05
19751;BME280;4663;49.120;9.730;2023-02-15T16:00:04;99059.81;;;3.89;75.73
19751;BME280;4663;49.120;9.730;2023-02-15T16:02:50;99063.31;;;3.90;75.78
19751;BME280;4663;49.120;9.730;2023-02-15T16:05:16;99063.38;;;3.77;75.92
19751;BME280;4663;49.120;9.730;2023-02-15T16:07:41;99059.94;;;3.63;76.59
19751;BME280;4663;49.120;9.730;2023-02-15T16:10:19;99052.16;;;3.60;76.86
19751;BME280;4663;49.120;9.730;2023-02-15T16:12:47;99060.66;;;3.54;77.05
19751;BME280;4663;49.120;9.730;2023-02-15T16:15:19;99064.38;;;3.51;77.09
19751;BME280;4663;49.120;9.730;2023-02-15T16:17:49;99065.63;;;3.34;77.54
19751;BME280;4663;49.120;9.730;2023-02-15T16:20:25;99068.25;;;3.23;77.65
19751;BME280;4663;49.120;9.730;2023-02-15T16:23:13;99069.78;;;3.38;76.91
19751;BME280;4663;49.120;9.730;2023-02-15T16:28:36;99061.72;;;3.27;76.95
19751;BME280;4663;49.120;9.730;2023-02-15T16:31:13;99062.91;;;2.85;78.38
19751;BME280;4663;49.120;9.730;2023-02-15T16:33:41;99058.41;;;2.99;78.29
19751;BME280;4663;49.120;9.730;2023-02-15T16:36:20;99058.19;;;3.02;78.29